sensor_id;sensor_type;location;lat;lon;timestamp;pressure;altitude;pressure_sealevel;temperature;humidity
70841;BME280;58465;51.534;9.934;2022-10-19T00:00:49;101181.66;;;9.81;92.43
70841;BME280;58465;51.534;9.934;2022-10-19T00:03:15;101181.66;;;9.90;92.28
70841;BME280;58465;51.534;9.934;2022-10-19T00:05:41;101176.31;;;9.99;92.47
70841;BME280;58465;51.534;9.934;2022-10-19T00:08:06;101166.50;;;10.07;92.32
70841;BME280;58465;51.534;9.934;2022-10-19T00:10:32;101166.53;;;9.99;92.02
70841;BME280;58465;51.534;9.934;2022-10-19T00:12:57;101177.19;;;9.98;91.82
70841;BME280;58465;51.534;9.934;2022-10-19T00:15:23;101164.75;;;9.91;91.80
70841;BME280;58465;51.534;9.934;2022-10-19T00:17:48;101171.00;;;9.90;91.65
70841;BME280;58465;51.534;9.934;2022-10-19T00:20:14;101174.56;;;9.89;91.59
70841;BME280;58465;51.534;9.934;2022-10-19T00:22:39;101172.78;;;9.86;91.83
70841;BME280;58465;51.534;9.934;2022-10-19T00:25:05;101172.75;;;9.94;92.55
70841;BME280;58465;51.534;9.934;2022-10-19T00:27:31;101166.50;;;10.01;92.63
70841;BME280;58465;51.534;9.934;2022-10-19T00:29:56;101169.16;;;10.07;92.61
70841;BME280;58465;51.534;9.934;2022-10-19T00:32:21;101163.81;;;10.13;92.37
70841;BME280;58465;51.534;9.934;2022-10-19T00:34:47;101172.69;;;10.15;92.11
70841;BME280;58465;51.534;9.934;2022-10-19T00:37:12;101174.47;;;10.12;92.18
70841;BME280;58465;51.534;9.934;2022-10-19T00:39:37;101176.25;;;10.14;92.19
70841;BME280;58465;51.534;9.934;2022-10-19T00:42:03;101177.19;;;10.18;91.72
70841;BME280;58465;51.534;9.934;2022-10-19T00:46:57;101187.84;;;10.16;91.12
70841;BME280;58465;51.534;9.934;2022-10-19T00:49:25;101195.00;;;10.19;91.18
70841;BME280;58465;51.534;9.934;2022-10-19T00:51:55;101196.72;;;10.20;91.12
70841;BME280;58465;51.534;9.934;2022-10-19T00:54:21;101191.44;;;10.18;91.04
70841;BME280;58465;51.534;9.934;2022-10-19T00:56:49;101197.63;;;10.20;90.51
70841;BME280;58465;51.534;9.934;2022-10-19T00:59:19;101198.50;;;10.12;90.03
70841;BME280;58465;51.534;9.934;2022-10-19T01:01:45;101202.09;;;10.08;90.02
70841;BME280;58465;51.534;9.934;2022-10-19T01:04:12;101202.09;;;10.06;90.34
70841;BME280;58465;51.534;9.934;2022-10-19T01:06:39;101191.41;;;10.06;90.25
70841;BME280;58465;51.534;9.934;2022-10-19T01:09:05;101190.53;;;10.04;90.31
70841;BME280;58465;51.534;9.934;2022-10-19T01:17:06;101192.38;;;9.68;90.57
70841;BME280;58465;51.534;9.934;2022-10-19T01:22:37;101201.25;;;9.63;90.89
70841;BME280;58465;51.534;9.934;2022-10-19T01:25:16;101188.78;;;9.63;91.18
70841;BME280;58465;51.534;9.934;2022-10-19T01:27:52;101185.22;;;9.61;91.86
70841;BME280;58465;51.534;9.934;2022-10-19T01:30:49;101174.56;;;9.63;91.74
70841;BME280;58465;51.534;9.934;2022-10-19T01:33:41;101171.91;;;9.66;91.77
70841;BME280;58465;51.534;9.934;2022-10-19T01:39:01;101191.47;;;9.70;92.24
70841;BME280;58465;51.534;9.934;2022-10-19T01:41:38;101197.69;;;9.68;91.93
70841;BME280;58465;51.534;9.934;2022-10-19T01:44:14;101199.47;;;9.65;91.70
70841;BME280;58465;51.534;9.934;2022-10-19T01:46:44;101200.34;;;9.67;92.27
70841;BME280;58465;51.534;9.934;2022-10-19T01:52:04;101192.31;;;9.82;92.19
70841;BME280;58465;51.534;9.934;2022-10-19T01:54:35;101188.78;;;9.89;91.76
70841;BME280;58465;51.534;9.934;2022-10-19T01:57:05;101194.09;;;9.97;91.79
70841;BME280;58465;51.534;9.934;2022-10-19T01:59:32;101193.22;;;9.99;91.48
70841;BME280;58465;51.534;9.934;2022-10-19T02:01:58;101200.31;;;10.03;91.47
70841;BME280;58465;51.534;9.934;2022-10-19T02:04:24;101202.97;;;10.03;91.49
70841;BME280;58465;51.534;9.934;2022-10-19T02:06:54;101190.56;;;9.99;91.12
70841;BME280;58465;51.534;9.934;2022-10-19T02:09:20;101194.06;;;10.01;91.13
70841;BME280;58465;51.534;9.934;2022-10-19T02:11:49;101195.00;;;9.99;90.80
70841;BME280;58465;51.534;9.934;2022-10-19T02:14:17;101203.88;;;9.98;90.92
70841;BME280;58465;51.534;9.934;2022-10-19T02:16:50;101195.88;;;9.95;90.79
70841;BME280;58465;51.534;9.934;2022-10-19T02:19:18;101194.97;;;9.91;90.83
70841;BME280;58465;51.534;9.934;2022-10-19T02:21:44;101187.00;;;9.87;90.86
70841;BME280;58465;51.534;9.934;2022-10-19T02:24:10;101179.00;;;9.84;90.55
70841;BME280;58465;51.534;9.934;2022-10-19T02:26:35;101187.00;;;9.84;90.59
70841;BME280;58465;51.534;9.934;2022-10-19T02:29:01;101178.97;;;9.81;90.75
70841;BME280;58465;51.534;9.934;2022-10-19T02:31:27;101170.97;;;9.81;90.79
70841;BME280;58465;51.534;9.934;2022-10-19T02:33:52;101165.63;;;9.81;91.13
70841;BME280;58465;51.534;9.934;2022-10-19T02:36:19;101168.31;;;9.85;90.97
70841;BME280;58465;51.534;9.934;2022-10-19T02:38:44;101175.44;;;9.89;91.32
70841;BME280;58465;51.534;9.934;2022-10-19T02:41:20;101178.97;;;9.94;91.30
70841;BME280;58465;51.534;9.934;2022-10-19T02:43:50;101183.41;;;10.00;91.32
70841;BME280;58465;51.534;9.934;2022-10-19T02:46:29;101179.84;;;10.07;91.29
70841;BME280;58465;51.534;9.934;2022-10-19T02:48:56;101181.59;;;10.10;91.02
70841;BME280;58465;51.534;9.934;2022-10-19T02:51:35;101188.75;;;10.06;90.98
70841;BME280;58465;51.534;9.934;2022-10-19T02:54:02;101192.31;;;10.08;90.42
70841;BME280;58465;51.534;9.934;2022-10-19T02:56:28;101181.63;;;10.08;90.59
70841;BME280;58465;51.534;9.934;2022-10-19T02:58:54;101181.59;;;10.10;90.51
70841;BME280;58465;51.534;9.934;2022-10-19T03:01:19;101177.16;;;10.12;90.55
70841;BME280;58465;51.534;9.934;2022-10-19T03:03:45;101180.75;;;10.08;89.99
70841;BME280;58465;51.534;9.934;2022-10-19T03:06:10;101185.19;;;10.07;90.08
70841;BME280;58465;51.534;9.934;2022-10-19T03:08:35;101179.84;;;10.07;89.77
70841;BME280;58465;51.534;9.934;2022-10-19T03:11:01;101183.41;;;10.03;89.56
70841;BME280;58465;51.534;9.934;2022-10-19T03:13:26;101177.19;;;9.98;89.80
70841;BME280;58465;51.534;9.934;2022-10-19T03:15:51;101180.75;;;9.97;89.62
70841;BME280;58465;51.534;9.934;2022-10-19T03:18:17;101185.19;;;9.92;89.52
70841;BME280;58465;51.534;9.934;2022-10-19T03:20:42;101179.88;;;9.89;90.03
70841;BME280;58465;51.534;9.934;2022-10-19T03:23:08;101181.66;;;9.90;89.67
70841;BME280;58465;51.534;9.934;2022-10-19T03:25:33;101182.56;;;9.89;89.50
70841;BME280;58465;51.534;9.934;2022-10-19T03:27:58;101179.88;;;9.89;89.71
70841;BME280;58465;51.534;9.934;2022-10-19T03:30:24;101182.56;;;9.78;89.60
70841;BME280;58465;51.534;9.934;2022-10-19T03:32:49;101183.44;;;9.82;89.58
70841;BME280;58465;51.534;9.934;2022-10-19T03:35:14;101180.78;;;9.80;89.66
70841;BME280;58465;51.534;9.934;2022-10-19T03:37:40;101185.25;;;9.80;89.65
70841;BME280;58465;51.534;9.934;2022-10-19T03:40:06;101183.44;;;9.76;89.75
70841;BME280;58465;51.534;9.934;2022-10-19T03:42:31;101194.13;;;9.76;89.84
70841;BME280;58465;51.534;9.934;2022-10-19T03:44:56;101193.25;;;9.77;89.66
70841;BME280;58465;51.534;9.934;2022-10-19T03:47:22;101204.81;;;9.79;89.72
70841;BME280;58465;51.534;9.934;2022-10-19T03:49:47;101195.03;;;9.79;89.51
70841;BME280;58465;51.534;9.934;2022-10-19T03:52:14;101199.47;;;9.77;89.24
70841;BME280;58465;51.534;9.934;2022-10-19T03:54:40;101197.69;;;9.76;89.20
70841;BME280;58465;51.534;9.934;2022-10-19T03:57:05;101203.00;;;9.73;89.04
70841;BME280;58465;51.534;9.934;2022-10-19T03:59:30;101205.69;;;9.72;88.78
70841;BME280;58465;51.534;9.934;2022-10-19T04:01:56;101196.81;;;9.66;88.89
70841;BME280;58465;51.534;9.934;2022-10-19T04:04:21;101199.44;;;9.71;88.93
70841;BME280;58465;51.534;9.934;2022-10-19T04:06:49;101199.47;;;9.66;88.86
70841;BME280;58465;51.534;9.934;2022-10-19T04:09:17;101200.34;;;9.65;88.80
70841;BME280;58465;51.534;9.934;2022-10-19T04:11:43;101209.25;;;9.57;88.65
70841;BME280;58465;51.534;9.934;2022-10-19T04:14:11;101213.69;;;9.53;88.57
70841;BME280;58465;51.534;9.934;2022-10-19T04:16:37;101205.69;;;9.53;88.67
70841;BME280;58465;51.534;9.934;2022-10-19T04:19:02;101203.94;;;9.51;89.11
70841;BME280;58465;51.534;9.934;2022-10-19T04:21:33;101208.34;;;9.38;88.76
70841;BME280;58465;51.534;9.934;2022-10-19T04:24:10;101201.25;;;9.31;88.76
70841;BME280;58465;51.534;9.934;2022-10-19T04:26:47;101205.66;;;9.24;88.90
70841;BME280;58465;51.534;9.934;2022-10-19T04:29:14;101203.91;;;9.20;89.16
70841;BME280;58465;51.534;9.934;2022-10-19T04:31:40;101201.22;;;9.19;89.45
70841;BME280;58465;51.534;9.934;2022-10-19T04:34:07;101205.66;;;9.24;89.32
70841;BME280;58465;51.534;9.934;2022-10-19T04:36:32;101205.69;;;9.30;89.35
70841;BME280;58465;51.534;9.934;2022-10-19T04:38:58;101210.13;;;9.32;89.06
70841;BME280;58465;51.534;9.934;2022-10-19T04:41:23;101212.81;;;9.39;89.12
70841;BME280;58465;51.534;9.934;2022-10-19T04:43:54;101212.81;;;9.38;88.55
70841;BME280;58465;51.534;9.934;2022-10-19T04:46:20;101205.66;;;9.34;88.10
70841;BME280;58465;51.534;9.934;2022-10-19T04:48:46;101206.56;;;9.25;87.83
70841;BME280;58465;51.534;9.934;2022-10-19T04:51:13;101205.66;;;9.15;87.96
70841;BME280;58465;51.534;9.934;2022-10-19T04:53:39;101203.88;;;9.16;88.49
70841;BME280;58465;51.534;9.934;2022-10-19T04:56:11;101208.31;;;9.15;88.69
70841;BME280;58465;51.534;9.934;2022-10-19T04:58:37;101202.09;;;9.18;89.01
70841;BME280;58465;51.534;9.934;2022-10-19T05:01:18;101217.22;;;9.28;89.15
70841;BME280;58465;51.534;9.934;2022-10-19T05:03:44;101210.13;;;9.30;88.91
70841;BME280;58465;51.534;9.934;2022-10-19T05:06:10;101207.47;;;9.38;88.71
70841;BME280;58465;51.534;9.934;2022-10-19T05:08:36;101209.25;;;9.48;88.73
70841;BME280;58465;51.534;9.934;2022-10-19T05:11:03;101206.59;;;9.55;88.34
70841;BME280;58465;51.534;9.934;2022-10-19T05:13:33;101213.69;;;9.56;87.79
70841;BME280;58465;51.534;9.934;2022-10-19T05:16:00;101211.03;;;9.56;87.66
70841;BME280;58465;51.534;9.934;2022-10-19T05:18:26;101209.25;;;9.54;87.32
70841;BME280;58465;51.534;9.934;2022-10-19T05:21:00;101206.59;;;9.55;87.56
70841;BME280;58465;51.534;9.934;2022-10-19T05:23:26;101211.00;;;9.62;87.46
70841;BME280;58465;51.534;9.934;2022-10-19T05:26:05;101208.34;;;9.64;87.09
70841;BME280;58465;51.534;9.934;2022-10-19T05:28:31;101198.59;;;9.58;86.57
70841;BME280;58465;51.534;9.934;2022-10-19T05:31:04;101198.56;;;9.52;86.22
70841;BME280;58465;51.534;9.934;2022-10-19T05:33:30;101202.13;;;9.47;86.71
70841;BME280;58465;51.534;9.934;2022-10-19T05:35:55;101208.38;;;9.47;86.88
70841;BME280;58465;51.534;9.934;2022-10-19T05:38:20;101203.91;;;9.37;86.61
70841;BME280;58465;51.534;9.934;2022-10-19T05:40:46;101187.91;;;9.36;86.42
70841;BME280;58465;51.534;9.934;2022-10-19T05:43:11;101195.03;;;9.38;86.60
70841;BME280;58465;51.534;9.934;2022-10-19T05:45:37;101204.78;;;9.42;86.67
70841;BME280;58465;51.534;9.934;2022-10-19T05:48:02;101205.72;;;9.41;86.43
70841;BME280;58465;51.534;9.934;2022-10-19T05:50:27;101200.34;;;9.38;86.44
70841;BME280;58465;51.534;9.934;2022-10-19T05:52:53;101209.25;;;9.45;86.37
70841;BME280;58465;51.534;9.934;2022-10-19T05:55:18;101213.69;;;9.47;85.74
70841;BME280;58465;51.534;9.934;2022-10-19T05:57:43;101208.38;;;9.50;85.86
70841;BME280;58465;51.534;9.934;2022-10-19T06:00:09;101210.16;;;9.51;85.89
70841;BME280;58465;51.534;9.934;2022-10-19T06:02:35;101208.38;;;9.50;85.81
70841;BME280;58465;51.534;9.934;2022-10-19T06:05:00;101211.91;;;9.52;85.19
70841;BME280;58465;51.534;9.934;2022-10-19T06:07:25;101210.16;;;9.59;85.24
70841;BME280;58465;51.534;9.934;2022-10-19T06:09:51;101212.78;;;9.63;85.00
70841;BME280;58465;51.534;9.934;2022-10-19T06:12:18;101219.91;;;9.63;85.17
70841;BME280;58465;51.534;9.934;2022-10-19T06:14:44;101216.34;;;9.62;84.95
70841;BME280;58465;51.534;9.934;2022-10-19T06:17:09;101210.16;;;9.60;85.32
70841;BME280;58465;51.534;9.934;2022-10-19T06:19:35;101224.38;;;9.65;85.61
70841;BME280;58465;51.534;9.934;2022-10-19T06:22:00;101219.94;;;9.71;85.26
70841;BME280;58465;51.534;9.934;2022-10-19T06:24:26;101210.13;;;9.82;84.79
70841;BME280;58465;51.534;9.934;2022-10-19T06:26:51;101215.44;;;9.92;84.11
70841;BME280;58465;51.534;9.934;2022-10-19T06:29:16;101209.22;;;9.92;83.68
70841;BME280;58465;51.534;9.934;2022-10-19T06:31:42;101213.69;;;9.99;83.91
70841;BME280;58465;51.534;9.934;2022-10-19T06:34:07;101221.66;;;10.08;84.08
70841;BME280;58465;51.534;9.934;2022-10-19T06:36:33;101224.31;;;10.14;83.66
70841;BME280;58465;51.534;9.934;2022-10-19T06:38:58;101218.97;;;10.14;83.19
70841;BME280;58465;51.534;9.934;2022-10-19T06:41:25;101222.56;;;10.22;83.06
70841;BME280;58465;51.534;9.934;2022-10-19T06:43:52;101217.22;;;10.21;82.92
70841;BME280;58465;51.534;9.934;2022-10-19T06:46:19;101221.69;;;10.19;83.18
70841;BME280;58465;51.534;9.934;2022-10-19T06:48:57;101227.88;;;10.13;83.52
70841;BME280;58465;51.534;9.934;2022-10-19T06:51:24;101223.41;;;10.33;83.40
70841;BME280;58465;51.534;9.934;2022-10-19T06:53:51;101228.69;;;10.53;82.75
70841;BME280;58465;51.534;9.934;2022-10-19T06:56:17;101223.34;;;10.56;81.81
70841;BME280;58465;51.534;9.934;2022-10-19T06:58:43;101233.09;;;10.66;81.92
70841;BME280;58465;51.534;9.934;2022-10-19T07:01:09;101232.19;;;10.69;81.60
70841;BME280;58465;51.534;9.934;2022-10-19T07:03:35;101235.75;;;10.71;81.31
70841;BME280;58465;51.534;9.934;2022-10-19T07:06:04;101223.28;;;10.74;81.19
70841;BME280;58465;51.534;9.934;2022-10-19T07:08:31;101229.47;;;10.81;80.93
70841;BME280;58465;51.534;9.934;2022-10-19T07:11:02;101232.97;;;10.89;80.93
70841;BME280;58465;51.534;9.934;2022-10-19T07:13:28;101227.63;;;10.95;80.58
70841;BME280;58465;51.534;9.934;2022-10-19T07:15:58;101231.19;;;10.90;80.87
70841;BME280;58465;51.534;9.934;2022-10-19T07:18:25;101233.88;;;10.90;80.98
70841;BME280;58465;51.534;9.934;2022-10-19T07:20:58;101233.88;;;10.93;80.81
70841;BME280;58465;51.534;9.934;2022-10-19T07:23:26;101240.09;;;10.92;80.66
70841;BME280;58465;51.534;9.934;2022-10-19T07:25:52;101238.38;;;10.85;80.69
70841;BME280;58465;51.534;9.934;2022-10-19T07:28:20;101245.44;;;10.95;80.66
70841;BME280;58465;51.534;9.934;2022-10-19T07:30:45;101238.22;;;11.07;80.47
70841;BME280;58465;51.534;9.934;2022-10-19T07:33:11;101238.19;;;11.15;79.95
70841;BME280;58465;51.534;9.934;2022-10-19T07:35:36;101242.63;;;11.24;80.31
70841;BME280;58465;51.534;9.934;2022-10-19T07:38:02;101240.66;;;11.44;79.52
70841;BME280;58465;51.534;9.934;2022-10-19T07:40:27;101244.22;;;11.52;79.02
70841;BME280;58465;51.534;9.934;2022-10-19T07:42:52;101245.84;;;11.68;78.56
70841;BME280;58465;51.534;9.934;2022-10-19T07:45:18;101241.25;;;11.90;77.74
70841;BME280;58465;51.534;9.934;2022-10-19T07:47:43;101242.88;;;12.08;76.92
70841;BME280;58465;51.534;9.934;2022-10-19T07:50:08;101247.31;;;12.09;77.07
70841;BME280;58465;51.534;9.934;2022-10-19T07:52:34;101249.91;;;12.16;76.51
70841;BME280;58465;51.534;9.934;2022-10-19T07:54:59;101246.34;;;12.16;76.51
70841;BME280;58465;51.534;9.934;2022-10-19T07:57:27;101245.63;;;11.97;77.33
70841;BME280;58465;51.534;9.934;2022-10-19T07:59:52;101238.53;;;11.93;77.66
70841;BME280;58465;51.534;9.934;2022-10-19T08:02:17;101247.25;;;12.15;76.89
70841;BME280;58465;51.534;9.934;2022-10-19T08:04:44;101247.25;;;12.13;76.76
70841;BME280;58465;51.534;9.934;2022-10-19T08:07:09;101248.94;;;12.25;76.48
70841;BME280;58465;51.534;9.934;2022-10-19T08:09:35;101246.44;;;12.07;76.81
70841;BME280;58465;51.534;9.934;2022-10-19T08:12:01;101248.06;;;12.21;76.86
70841;BME280;58465;51.534;9.934;2022-10-19T08:14:26;101254.16;;;12.37;76.26
70841;BME280;58465;51.534;9.934;2022-10-19T08:16:51;101240.75;;;12.39;76.02
70841;BME280;58465;51.534;9.934;2022-10-19T08:19:17;101250.63;;;12.35;76.07
70841;BME280;58465;51.534;9.934;2022-10-19T08:21:44;101243.38;;;12.42;75.93
70841;BME280;58465;51.534;9.934;2022-10-19T08:24:12;101254.88;;;12.53;75.73
70841;BME280;58465;51.534;9.934;2022-10-19T08:26:38;101248.53;;;12.60;75.68
70841;BME280;58465;51.534;9.934;2022-10-19T08:29:12;101259.19;;;12.68;75.11
70841;BME280;58465;51.534;9.934;2022-10-19T08:31:39;101258.28;;;12.69;74.77
70841;BME280;58465;51.534;9.934;2022-10-19T08:34:05;101257.47;;;12.60;75.29
70841;BME280;58465;51.534;9.934;2022-10-19T08:36:31;101248.44;;;12.69;75.57
70841;BME280;58465;51.534;9.934;2022-10-19T08:38:57;101251.09;;;12.71;75.13
70841;BME280;58465;51.534;9.934;2022-10-19T08:49:37;101237.31;;;12.99;72.97
70841;BME280;58465;51.534;9.934;2022-10-19T08:52:30;101240.91;;;12.98;72.75
70841;BME280;58465;51.534;9.934;2022-10-19T08:55:03;101230.28;;;12.91;73.87
70841;BME280;58465;51.534;9.934;2022-10-19T08:57:55;101240.13;;;12.89;73.68
70841;BME280;58465;51.534;9.934;2022-10-19T09:03:24;101230.63;;;13.34;72.41
70841;BME280;58465;51.534;9.934;2022-10-19T09:08:20;101232.00;;;13.58;71.61
70841;BME280;58465;51.534;9.934;2022-10-19T09:10:48;101228.28;;;13.68;71.34
70841;BME280;58465;51.534;9.934;2022-10-19T09:15:50;101227.09;;;13.84;70.77
70841;BME280;58465;51.534;9.934;2022-10-19T09:18:22;101226.34;;;13.74;71.37
70841;BME280;58465;51.534;9.934;2022-10-19T09:20:49;101223.09;;;13.56;72.20
70841;BME280;58465;51.534;9.934;2022-10-19T09:23:20;101230.16;;;13.63;72.25
70841;BME280;58465;51.534;9.934;2022-10-19T09:25:49;101227.41;;;13.66;71.84
70841;BME280;58465;51.534;9.934;2022-10-19T09:28:40;101221.19;;;13.64;71.24
70841;BME280;58465;51.534;9.934;2022-10-19T09:31:21;101224.03;;;13.55;72.43
70841;BME280;58465;51.534;9.934;2022-10-19T09:33:52;101221.09;;;13.70;71.08
70841;BME280;58465;51.534;9.934;2022-10-19T09:36:19;101227.38;;;13.69;70.99
70841;BME280;58465;51.534;9.934;2022-10-19T09:38:46;101222.84;;;13.72;70.88
70841;BME280;58465;51.534;9.934;2022-10-19T09:41:17;101226.28;;;13.79;70.32
70841;BME280;58465;51.534;9.934;2022-10-19T09:43:46;101225.38;;;13.80;70.44
70841;BME280;58465;51.534;9.934;2022-10-19T09:46:26;101227.94;;;13.88;69.65
70841;BME280;58465;51.534;9.934;2022-10-19T09:48:53;101222.38;;;13.98;67.98
70841;BME280;58465;51.534;9.934;2022-10-19T09:51:19;101227.59;;;14.07;66.99
70841;BME280;58465;51.534;9.934;2022-10-19T09:53:53;101224.91;;;14.07;66.23
70841;BME280;58465;51.534;9.934;2022-10-19T09:58:47;101230.47;;;14.46;65.94
70841;BME280;58465;51.534;9.934;2022-10-19T10:01:34;101228.22;;;14.69;65.23
70841;BME280;58465;51.534;9.934;2022-10-19T10:04:16;101221.75;;;14.78;63.85
70841;BME280;58465;51.534;9.934;2022-10-19T10:06:43;101225.94;;;14.91;62.93
70841;BME280;58465;51.534;9.934;2022-10-19T10:09:37;101224.44;;;14.78;57.29
70841;BME280;58465;51.534;9.934;2022-10-19T10:12:04;101224.97;;;14.95;58.08
70841;BME280;58465;51.534;9.934;2022-10-19T10:14:34;101219.00;;;15.21;58.40
70841;BME280;58465;51.534;9.934;2022-10-19T10:17:04;101215.41;;;15.20;57.13
70841;BME280;58465;51.534;9.934;2022-10-19T10:19:32;101214.59;;;15.18;55.73
70841;BME280;58465;51.534;9.934;2022-10-19T10:21:58;101221.56;;;15.27;56.24
70841;BME280;58465;51.534;9.934;2022-10-19T10:24:29;101219.69;;;15.29;55.48
70841;BME280;58465;51.534;9.934;2022-10-19T10:27:02;101211.47;;;15.37;54.66
70841;BME280;58465;51.534;9.934;2022-10-19T10:29:30;101208.53;;;15.47;54.89
70841;BME280;58465;51.534;9.934;2022-10-19T10:34:54;101208.84;;;15.34;53.02
70841;BME280;58465;51.534;9.934;2022-10-19T10:37:23;101213.09;;;15.44;53.94
70841;BME280;58465;51.534;9.934;2022-10-19T10:39:52;101207.63;;;15.47;51.20
70841;BME280;58465;51.534;9.934;2022-10-19T10:42:27;101213.38;;;15.32;53.36
70841;BME280;58465;51.534;9.934;2022-10-19T10:44:53;101218.94;;;14.84;53.38
70841;BME280;58465;51.534;9.934;2022-10-19T10:47:21;101222.94;;;15.06;52.83
70841;BME280;58465;51.534;9.934;2022-10-19T10:49:58;101212.91;;;14.71;53.10
70841;BME280;58465;51.534;9.934;2022-10-19T10:52:28;101204.56;;;14.85;53.13
70841;BME280;58465;51.534;9.934;2022-10-19T10:57:45;101207.28;;;14.83;52.23
70841;BME280;58465;51.534;9.934;2022-10-19T11:00:17;101214.19;;;14.97;52.53
70841;BME280;58465;51.534;9.934;2022-10-19T11:02:56;101206.78;;;14.65;52.18
70841;BME280;58465;51.534;9.934;2022-10-19T11:05:33;101201.50;;;15.02;51.77
70841;BME280;58465;51.534;9.934;2022-10-19T11:10:56;101201.50;;;15.40;52.20
70841;BME280;58465;51.534;9.934;2022-10-19T11:13:30;101198.97;;;15.71;51.14
70841;BME280;58465;51.534;9.934;2022-10-19T11:16:43;101192.88;;;15.65;50.63
70841;BME280;58465;51.534;9.934;2022-10-19T11:22:05;101189.38;;;15.59;50.69
70841;BME280;58465;51.534;9.934;2022-10-19T11:27:27;101188.13;;;16.08;51.15
70841;BME280;58465;51.534;9.934;2022-10-19T11:33:05;101180.69;;;15.84;49.92
70841;BME280;58465;51.534;9.934;2022-10-19T11:35:53;101175.59;;;15.73;50.80
70841;BME280;58465;51.534;9.934;2022-10-19T11:44:27;101150.78;;;16.25;50.02
70841;BME280;58465;51.534;9.934;2022-10-19T11:47:12;101155.22;;;16.28;48.02
70841;BME280;58465;51.534;9.934;2022-10-19T11:49:48;101148.22;;;16.83;47.75
70841;BME280;58465;51.534;9.934;2022-10-19T12:00:42;101119.22;;;20.59;40.30
70841;BME280;58465;51.534;9.934;2022-10-19T12:09:00;101106.25;;;19.66;41.09
70841;BME280;58465;51.534;9.934;2022-10-19T12:11:50;101106.13;;;18.82;42.22
70841;BME280;58465;51.534;9.934;2022-10-19T12:14:23;101100.13;;;17.50;45.23
70841;BME280;58465;51.534;9.934;2022-10-19T12:16:53;101095.59;;;16.97;46.94
70841;BME280;58465;51.534;9.934;2022-10-19T12:19:25;101086.78;;;16.63;47.59
70841;BME280;58465;51.534;9.934;2022-10-19T12:22:01;101095.81;;;15.68;49.05
70841;BME280;58465;51.534;9.934;2022-10-19T12:24:29;101093.19;;;15.66;50.29
70841;BME280;58465;51.534;9.934;2022-10-19T12:26:56;101091.72;;;15.17;50.81
70841;BME280;58465;51.534;9.934;2022-10-19T12:29:35;101076.56;;;15.13;51.08
70841;BME280;58465;51.534;9.934;2022-10-19T12:32:04;101072.81;;;15.19;51.40
70841;BME280;58465;51.534;9.934;2022-10-19T12:34:51;101074.44;;;15.62;50.67
70841;BME280;58465;51.534;9.934;2022-10-19T12:40:34;101070.56;;;16.04;49.60
70841;BME280;58465;51.534;9.934;2022-10-19T12:43:27;101073.38;;;16.30;49.37
70841;BME280;58465;51.534;9.934;2022-10-19T12:46:14;101069.28;;;16.47;48.88
70841;BME280;58465;51.534;9.934;2022-10-19T12:48:42;101066.31;;;16.56;49.06
70841;BME280;58465;51.534;9.934;2022-10-19T12:51:10;101059.16;;;15.94;50.95
70841;BME280;58465;51.534;9.934;2022-10-19T12:53:41;101065.00;;;15.78;51.19
70841;BME280;58465;51.534;9.934;2022-10-19T13:01:12;101063.16;;;15.10;53.32
70841;BME280;58465;51.534;9.934;2022-10-19T13:03:41;101063.75;;;15.23;53.46
70841;BME280;58465;51.534;9.934;2022-10-19T13:06:29;101065.63;;;14.84;54.29
70841;BME280;58465;51.534;9.934;2022-10-19T13:08:58;101070.47;;;15.05;53.95
70841;BME280;58465;51.534;9.934;2022-10-19T13:11:25;101064.84;;;15.16;53.55
70841;BME280;58465;51.534;9.934;2022-10-19T13:21:50;101055.94;;;15.12;52.46
70841;BME280;58465;51.534;9.934;2022-10-19T13:35:22;101039.59;;;14.84;53.64
70841;BME280;58465;51.534;9.934;2022-10-19T13:43:28;101027.31;;;15.10;53.35
70841;BME280;58465;51.534;9.934;2022-10-19T13:54:03;101032.69;;;14.33;55.13
70841;BME280;58465;51.534;9.934;2022-10-19T13:59:44;101033.31;;;14.04;56.13
70841;BME280;58465;51.534;9.934;2022-10-19T14:05:20;101022.03;;;13.88;56.70
70841;BME280;58465;51.534;9.934;2022-10-19T14:10:51;101032.06;;;13.79;57.16
70841;BME280;58465;51.534;9.934;2022-10-19T14:13:22;101025.22;;;13.64;57.27
70841;BME280;58465;51.534;9.934;2022-10-19T14:15:53;101018.47;;;13.42;57.85
70841;BME280;58465;51.534;9.934;2022-10-19T14:18:31;101027.47;;;13.39;57.92
70841;BME280;58465;51.534;9.934;2022-10-19T14:21:02;101025.78;;;13.33;58.00
70841;BME280;58465;51.534;9.934;2022-10-19T14:23:30;101022.28;;;13.30;58.24
70841;BME280;58465;51.534;9.934;2022-10-19T14:26:04;101016.94;;;13.27;57.71
70841;BME280;58465;51.534;9.934;2022-10-19T14:28:31;101017.78;;;13.30;57.68
70841;BME280;58465;51.534;9.934;2022-10-19T14:31:06;101012.63;;;13.20;58.39
70841;BME280;58465;51.534;9.934;2022-10-19T14:33:37;101018.97;;;13.16;58.57
70841;BME280;58465;51.534;9.934;2022-10-19T14:36:04;101007.38;;;13.14;58.17
70841;BME280;58465;51.534;9.934;2022-10-19T14:38:33;101013.59;;;13.16;58.42
70841;BME280;58465;51.534;9.934;2022-10-19T14:41:01;100998.34;;;13.18;58.84
70841;BME280;58465;51.534;9.934;2022-10-19T14:43:29;101002.88;;;13.13;58.47
70841;BME280;58465;51.534;9.934;2022-10-19T14:48:34;101006.50;;;13.10;58.26
70841;BME280;58465;51.534;9.934;2022-10-19T14:51:00;101005.59;;;13.11;58.41
70841;BME280;58465;51.534;9.934;2022-10-19T14:56:00;101026.25;;;13.06;58.22
70841;BME280;58465;51.534;9.934;2022-10-19T14:58:38;101022.84;;;12.96;58.87
70841;BME280;58465;51.534;9.934;2022-10-19T15:01:05;101011.25;;;12.93;59.10
70841;BME280;58465;51.534;9.934;2022-10-19T15:03:31;101009.47;;;12.93;59.08
70841;BME280;58465;51.534;9.934;2022-10-19T15:06:01;101007.78;;;12.88;59.37
70841;BME280;58465;51.534;9.934;2022-10-19T15:08:36;100999.75;;;12.88;59.50
70841;BME280;58465;51.534;9.934;2022-10-19T15:11:07;101006.91;;;12.87;59.48